Richmond (North Yorkshire), United Kingdom
Current Conditions -  °F | °C
As of 1:50 AM on Friday 21 Nov 2014 (Local Time) from EGXE Reporting Station
Moderate Fog Moderate Fog  
Wind Chill: 41°   Ceiling: 6000
Heat Index: 41°   Visibility: 0.25mi
Dew Point: 41°   Wind: 3mph
Humidity: 100%   Direction: 360°N
Pressure: 30.21"   Gusts: NA
Location:  54.41°N, 1.74°W
Report Text: EGXE 210150Z AUTO 36003KT 0400 FG SCT026/// BKN060/// 05/05 Q1023
Loading
Personal Weather Stations






























Interactive Weather Map New forecast layout! Learn more

10-Day Weather Forecast

Advertisements
Track Severe Weather on mobile